sensor_id;sensor_type;location;lat;lon;timestamp;pressure;altitude;pressure_sealevel;temperature;humidity
86020;BME280;76596;51.056;-1.798;2024-03-23T00:56:13;100860.25;;;3.95;80.26
86020;BME280;76596;51.056;-1.798;2024-03-23T00:58:41;100861.03;;;3.92;80.02
86020;BME280;76596;51.056;-1.798;2024-03-23T01:01:07;100855.16;;;3.93;79.71
86020;BME280;76596;51.056;-1.798;2024-03-23T01:03:32;100851.78;;;3.94;79.64
86020;BME280;76596;51.056;-1.798;2024-03-23T01:06:01;100857.00;;;4.01;78.83
86020;BME280;76596;51.056;-1.798;2024-03-23T01:08:26;100843.56;;;4.08;78.00
86020;BME280;76596;51.056;-1.798;2024-03-23T01:10:59;100847.81;;;4.09;78.14
86020;BME280;76596;51.056;-1.798;2024-03-23T01:13:24;100840.91;;;4.03;78.38
86020;BME280;76596;51.056;-1.798;2024-03-23T01:15:50;100835.00;;;4.03;78.19
86020;BME280;76596;51.056;-1.798;2024-03-23T01:18:17;100831.56;;;4.01;78.66
86020;BME280;76596;51.056;-1.798;2024-03-23T01:20:43;100832.41;;;4.01;78.27
86020;BME280;76596;51.056;-1.798;2024-03-23T01:23:08;100829.13;;;4.05;77.02
86020;BME280;76596;51.056;-1.798;2024-03-23T01:25:33;100829.91;;;4.03;77.69
86020;BME280;76596;51.056;-1.798;2024-03-23T01:27:59;100829.03;;;4.01;78.05
86020;BME280;76596;51.056;-1.798;2024-03-23T01:30:24;100830.69;;;3.98;77.48
86020;BME280;76596;51.056;-1.798;2024-03-23T01:32:49;100833.25;;;4.00;77.19
86020;BME280;76596;51.056;-1.798;2024-03-23T01:35:15;100827.34;;;4.01;76.99
86020;BME280;76596;51.056;-1.798;2024-03-23T01:37:40;100835.00;;;4.03;77.60
86020;BME280;76596;51.056;-1.798;2024-03-23T01:40:06;100833.41;;;4.09;76.17
86020;BME280;76596;51.056;-1.798;2024-03-23T01:42:31;100831.00;;;4.15;76.14
86020;BME280;76596;51.056;-1.798;2024-03-23T01:44:56;100820.84;;;4.15;76.73
86020;BME280;76596;51.056;-1.798;2024-03-23T01:47:22;100820.78;;;4.12;76.55
86020;BME280;76596;51.056;-1.798;2024-03-23T01:49:48;100832.66;;;4.15;76.31
86020;BME280;76596;51.056;-1.798;2024-03-23T01:52:13;100825.94;;;4.17;76.99
86020;BME280;76596;51.056;-1.798;2024-03-23T01:54:40;100827.59;;;4.15;76.24
86020;BME280;76596;51.056;-1.798;2024-03-23T01:57:06;100820.88;;;4.17;76.33
86020;BME280;76596;51.056;-1.798;2024-03-23T01:59:31;100819.97;;;4.15;76.37
86020;BME280;76596;51.056;-1.798;2024-03-23T02:01:57;100825.94;;;4.17;76.69
86020;BME280;76596;51.056;-1.798;2024-03-23T02:04:22;100823.50;;;4.23;76.45
86020;BME280;76596;51.056;-1.798;2024-03-23T02:06:48;100822.59;;;4.19;76.75
86020;BME280;76596;51.056;-1.798;2024-03-23T02:09:14;100818.41;;;4.21;77.04
86020;BME280;76596;51.056;-1.798;2024-03-23T02:11:40;100814.09;;;4.19;77.10
86020;BME280;76596;51.056;-1.798;2024-03-23T02:14:05;100820.88;;;4.18;77.82
86020;BME280;76596;51.056;-1.798;2024-03-23T02:16:31;100811.63;;;4.22;77.24
86020;BME280;76596;51.056;-1.798;2024-03-23T02:18:56;100804.09;;;4.27;77.57
86020;BME280;76596;51.056;-1.798;2024-03-23T02:21:21;100809.13;;;4.25;77.93
86020;BME280;76596;51.056;-1.798;2024-03-23T02:23:46;100803.97;;;4.20;78.13
86020;BME280;76596;51.056;-1.798;2024-03-23T02:26:12;100811.63;;;4.22;78.10
86020;BME280;76596;51.056;-1.798;2024-03-23T02:28:38;100809.13;;;4.23;77.85
86020;BME280;76596;51.056;-1.798;2024-03-23T02:31:04;100808.19;;;4.20;78.30
86020;BME280;76596;51.056;-1.798;2024-03-23T02:33:29;100808.19;;;4.20;77.77
86020;BME280;76596;51.056;-1.798;2024-03-23T02:35:57;100799.69;;;4.18;78.11
86020;BME280;76596;51.056;-1.798;2024-03-23T02:38:23;100793.78;;;4.19;77.97
86020;BME280;76596;51.056;-1.798;2024-03-23T02:40:48;100792.88;;;4.15;77.97
86020;BME280;76596;51.056;-1.798;2024-03-23T02:43:13;100802.13;;;4.12;78.13
86020;BME280;76596;51.056;-1.798;2024-03-23T02:45:39;100811.47;;;4.14;77.78
86020;BME280;76596;51.056;-1.798;2024-03-23T02:48:04;100798.72;;;4.10;78.33
86020;BME280;76596;51.056;-1.798;2024-03-23T02:50:30;100795.34;;;4.11;77.78
86020;BME280;76596;51.056;-1.798;2024-03-23T02:52:55;100805.50;;;4.11;78.18
86020;BME280;76596;51.056;-1.798;2024-03-23T02:55:21;100798.63;;;4.05;77.73
86020;BME280;76596;51.056;-1.798;2024-03-23T02:57:47;100793.53;;;4.05;77.87
86020;BME280;76596;51.056;-1.798;2024-03-23T03:00:12;100799.41;;;4.03;78.18
86020;BME280;76596;51.056;-1.798;2024-03-23T03:02:38;100790.16;;;4.06;77.85
86020;BME280;76596;51.056;-1.798;2024-03-23T03:05:04;100796.13;;;4.08;77.63
86020;BME280;76596;51.056;-1.798;2024-03-23T03:07:31;100799.50;;;4.09;77.78
86020;BME280;76596;51.056;-1.798;2024-03-23T03:09:57;100796.97;;;4.09;77.52
86020;BME280;76596;51.056;-1.798;2024-03-23T03:12:22;100808.78;;;4.05;77.68
86020;BME280;76596;51.056;-1.798;2024-03-23T03:14:48;100801.09;;;4.04;77.97
86020;BME280;76596;51.056;-1.798;2024-03-23T03:17:13;100804.59;;;4.09;77.50
86020;BME280;76596;51.056;-1.798;2024-03-23T03:19:40;100804.56;;;4.06;77.00
86020;BME280;76596;51.056;-1.798;2024-03-23T03:22:05;100800.34;;;4.08;77.09
86020;BME280;76596;51.056;-1.798;2024-03-23T03:24:30;100802.88;;;4.06;77.46
86020;BME280;76596;51.056;-1.798;2024-03-23T03:26:56;100793.47;;;4.04;76.69
86020;BME280;76596;51.056;-1.798;2024-03-23T03:29:22;100798.63;;;4.05;77.49
86020;BME280;76596;51.056;-1.798;2024-03-23T03:31:48;100795.22;;;4.05;77.21
86020;BME280;76596;51.056;-1.798;2024-03-23T03:34:15;100803.81;;;4.11;77.09
86020;BME280;76596;51.056;-1.798;2024-03-23T03:36:40;100801.25;;;4.10;76.85
86020;BME280;76596;51.056;-1.798;2024-03-23T03:39:06;100811.31;;;4.05;76.96
86020;BME280;76596;51.056;-1.798;2024-03-23T03:41:32;100804.53;;;4.04;76.67
86020;BME280;76596;51.056;-1.798;2024-03-23T03:43:57;100796.94;;;4.07;76.58
86020;BME280;76596;51.056;-1.798;2024-03-23T03:46:27;100797.78;;;4.06;76.61
86020;BME280;76596;51.056;-1.798;2024-03-23T03:48:54;100796.03;;;4.04;76.68
86020;BME280;76596;51.056;-1.798;2024-03-23T03:51:19;100798.53;;;4.01;76.28
86020;BME280;76596;51.056;-1.798;2024-03-23T03:53:44;100801.06;;;3.99;76.49
86020;BME280;76596;51.056;-1.798;2024-03-23T03:56:10;100802.75;;;4.00;76.18
86020;BME280;76596;51.056;-1.798;2024-03-23T03:58:35;100794.22;;;3.96;75.99
86020;BME280;76596;51.056;-1.798;2024-03-23T04:01:00;100789.16;;;3.98;76.46
86020;BME280;76596;51.056;-1.798;2024-03-23T04:03:26;100791.66;;;3.96;76.47
86020;BME280;76596;51.056;-1.798;2024-03-23T04:05:52;100794.22;;;3.96;76.37
86020;BME280;76596;51.056;-1.798;2024-03-23T04:08:18;100800.16;;;3.97;75.87
86020;BME280;76596;51.056;-1.798;2024-03-23T04:10:43;100797.59;;;3.97;76.43
86020;BME280;76596;51.056;-1.798;2024-03-23T04:13:09;100796.72;;;3.95;76.24
86020;BME280;76596;51.056;-1.798;2024-03-23T04:15:34;100786.53;;;3.93;75.87
86020;BME280;76596;51.056;-1.798;2024-03-23T04:17:59;100793.22;;;3.88;76.36
86020;BME280;76596;51.056;-1.798;2024-03-23T04:20:25;100790.59;;;3.84;76.63
86020;BME280;76596;51.056;-1.798;2024-03-23T04:22:50;100785.47;;;3.82;76.02
86020;BME280;76596;51.056;-1.798;2024-03-23T04:25:15;100787.13;;;3.80;76.07
86020;BME280;76596;51.056;-1.798;2024-03-23T04:27:41;100789.56;;;3.76;76.29
86020;BME280;76596;51.056;-1.798;2024-03-23T04:30:07;100791.31;;;3.77;76.67
86020;BME280;76596;51.056;-1.798;2024-03-23T04:32:39;100791.38;;;3.81;75.67
86020;BME280;76596;51.056;-1.798;2024-03-23T04:35:05;100782.75;;;3.73;76.66
86020;BME280;76596;51.056;-1.798;2024-03-23T04:37:34;100790.41;;;3.75;76.44
86020;BME280;76596;51.056;-1.798;2024-03-23T04:40:02;100790.31;;;3.70;76.35
86020;BME280;76596;51.056;-1.798;2024-03-23T04:42:31;100779.25;;;3.68;76.73
86020;BME280;76596;51.056;-1.798;2024-03-23T04:44:56;100785.22;;;3.70;77.06
86020;BME280;76596;51.056;-1.798;2024-03-23T04:47:21;100785.22;;;3.70;77.21
86020;BME280;76596;51.056;-1.798;2024-03-23T04:49:47;100781.88;;;3.71;77.25
86020;BME280;76596;51.056;-1.798;2024-03-23T04:52:13;100784.25;;;3.63;77.46
86020;BME280;76596;51.056;-1.798;2024-03-23T04:54:38;100787.50;;;3.56;77.84
86020;BME280;76596;51.056;-1.798;2024-03-23T04:57:05;100787.25;;;3.44;78.87
86020;BME280;76596;51.056;-1.798;2024-03-23T04:59:31;100791.28;;;3.36;78.65
86020;BME280;76596;51.056;-1.798;2024-03-23T05:01:56;100785.13;;;3.25;79.50
86020;BME280;76596;51.056;-1.798;2024-03-23T05:04:21;100785.81;;;3.16;79.59
86020;BME280;76596;51.056;-1.798;2024-03-23T05:06:47;100781.47;;;3.12;80.18
86020;BME280;76596;51.056;-1.798;2024-03-23T05:09:12;100774.63;;;3.08;81.03
86020;BME280;76596;51.056;-1.798;2024-03-23T05:11:38;100770.25;;;3.01;80.07
86020;BME280;76596;51.056;-1.798;2024-03-23T05:14:04;100758.28;;;2.95;80.56
86020;BME280;76596;51.056;-1.798;2024-03-23T05:16:29;100758.94;;;2.86;81.03
86020;BME280;76596;51.056;-1.798;2024-03-23T05:18:54;100764.69;;;2.79;81.70
86020;BME280;76596;51.056;-1.798;2024-03-23T05:21:20;100756.16;;;2.76;81.96
86020;BME280;76596;51.056;-1.798;2024-03-23T05:23:45;100761.13;;;2.71;82.24
86020;BME280;76596;51.056;-1.798;2024-03-23T05:26:11;100760.13;;;2.64;82.63
86020;BME280;76596;51.056;-1.798;2024-03-23T05:28:36;100760.88;;;2.60;82.92
86020;BME280;76596;51.056;-1.798;2024-03-23T05:31:01;100757.47;;;2.60;82.68
86020;BME280;76596;51.056;-1.798;2024-03-23T05:33:27;100755.78;;;2.59;82.92
86020;BME280;76596;51.056;-1.798;2024-03-23T05:36:01;100755.69;;;2.56;82.94
86020;BME280;76596;51.056;-1.798;2024-03-23T05:38:27;100752.28;;;2.55;82.38
86020;BME280;76596;51.056;-1.798;2024-03-23T05:40:57;100757.25;;;2.51;83.05
86020;BME280;76596;51.056;-1.798;2024-03-23T05:43:22;100754.69;;;2.49;82.99
86020;BME280;76596;51.056;-1.798;2024-03-23T05:48:19;100762.19;;;2.45;83.47
86020;BME280;76596;51.056;-1.798;2024-03-23T05:50:45;100754.56;;;2.45;82.86
86020;BME280;76596;51.056;-1.798;2024-03-23T05:53:10;100757.13;;;2.46;83.61
86020;BME280;76596;51.056;-1.798;2024-03-23T05:55:35;100751.91;;;2.40;82.93
86020;BME280;76596;51.056;-1.798;2024-03-23T05:58:00;100747.63;;;2.36;83.66
86020;BME280;76596;51.056;-1.798;2024-03-23T06:00:26;100739.09;;;2.34;83.62
86020;BME280;76596;51.056;-1.798;2024-03-23T06:02:51;100739.94;;;2.34;83.85
86020;BME280;76596;51.056;-1.798;2024-03-23T06:05:17;100743.34;;;2.35;83.48
86020;BME280;76596;51.056;-1.798;2024-03-23T06:07:42;100746.00;;;2.39;83.41
86020;BME280;76596;51.056;-1.798;2024-03-23T06:10:08;100736.78;;;2.43;83.52
86020;BME280;76596;51.056;-1.798;2024-03-23T06:12:33;100737.69;;;2.47;83.32
86020;BME280;76596;51.056;-1.798;2024-03-23T06:14:58;100740.31;;;2.50;82.84
86020;BME280;76596;51.056;-1.798;2024-03-23T06:17:24;100735.34;;;2.53;83.21
86020;BME280;76596;51.056;-1.798;2024-03-23T06:19:49;100732.03;;;2.57;83.61
86020;BME280;76596;51.056;-1.798;2024-03-23T06:22:15;100733.81;;;2.61;83.24
86020;BME280;76596;51.056;-1.798;2024-03-23T06:24:40;100728.03;;;2.67;83.35
86020;BME280;76596;51.056;-1.798;2024-03-23T06:27:06;100726.44;;;2.70;82.25
86020;BME280;76596;51.056;-1.798;2024-03-23T06:29:31;100726.59;;;2.78;82.49
86020;BME280;76596;51.056;-1.798;2024-03-23T06:31:57;100716.59;;;2.84;82.50
86020;BME280;76596;51.056;-1.798;2024-03-23T06:34:23;100722.59;;;2.87;82.66
86020;BME280;76596;51.056;-1.798;2024-03-23T06:36:49;100725.19;;;2.90;82.86
86020;BME280;76596;51.056;-1.798;2024-03-23T06:39:15;100729.50;;;2.95;82.06
86020;BME280;76596;51.056;-1.798;2024-03-23T06:41:52;100726.41;;;3.08;82.57
86020;BME280;76596;51.056;-1.798;2024-03-23T06:44:18;100729.88;;;3.11;81.87
86020;BME280;76596;51.056;-1.798;2024-03-23T06:46:44;100727.47;;;3.17;82.17
86020;BME280;76596;51.056;-1.798;2024-03-23T06:49:10;100731.06;;;3.27;82.17
86020;BME280;76596;51.056;-1.798;2024-03-23T06:51:35;100719.34;;;3.35;82.03
86020;BME280;76596;51.056;-1.798;2024-03-23T06:54:05;100718.69;;;3.42;81.99
86020;BME280;76596;51.056;-1.798;2024-03-23T06:56:31;100718.91;;;3.55;81.73
86020;BME280;76596;51.056;-1.798;2024-03-23T06:58:57;100713.94;;;3.61;82.03
86020;BME280;76596;51.056;-1.798;2024-03-23T07:01:22;100704.88;;;3.75;80.60
86020;BME280;76596;51.056;-1.798;2024-03-23T07:03:47;100716.13;;;3.88;80.53
86020;BME280;76596;51.056;-1.798;2024-03-23T07:06:13;100707.91;;;4.03;80.35
86020;BME280;76596;51.056;-1.798;2024-03-23T07:08:38;100711.69;;;4.26;79.28
86020;BME280;76596;51.056;-1.798;2024-03-23T07:11:03;100710.47;;;4.56;78.00
86020;BME280;76596;51.056;-1.798;2024-03-23T07:13:30;100695.28;;;4.62;77.59
86020;BME280;76596;51.056;-1.798;2024-03-23T07:15:55;100692.84;;;4.71;76.84
86020;BME280;76596;51.056;-1.798;2024-03-23T07:18:22;100687.16;;;4.87;75.28
86020;BME280;76596;51.056;-1.798;2024-03-23T07:20:55;100685.78;;;5.14;74.41
86020;BME280;76596;51.056;-1.798;2024-03-23T07:23:24;100670.97;;;5.55;72.73
86020;BME280;76596;51.056;-1.798;2024-03-23T07:26:02;100662.13;;;6.04;71.42
86020;BME280;76596;51.056;-1.798;2024-03-23T07:28:29;100664.19;;;6.54;69.07
86020;BME280;76596;51.056;-1.798;2024-03-23T07:31:07;100651.56;;;6.83;67.52
86020;BME280;76596;51.056;-1.798;2024-03-23T07:33:46;100662.06;;;7.52;65.86
86020;BME280;76596;51.056;-1.798;2024-03-23T07:36:12;100674.06;;;8.11;65.44
86020;BME280;76596;51.056;-1.798;2024-03-23T07:38:40;100675.75;;;8.64;62.22
86020;BME280;76596;51.056;-1.798;2024-03-23T07:41:10;100657.84;;;8.60;62.23
86020;BME280;76596;51.056;-1.798;2024-03-23T07:43:39;100659.53;;;8.47;62.27
86020;BME280;76596;51.056;-1.798;2024-03-23T07:46:05;100662.03;;;8.88;60.85
86020;BME280;76596;51.056;-1.798;2024-03-23T07:48:31;100655.47;;;9.93;58.88
86020;BME280;76596;51.056;-1.798;2024-03-23T07:51:08;100662.59;;;10.59;56.34
86020;BME280;76596;51.056;-1.798;2024-03-23T07:53:34;100669.53;;;10.51;56.49
86020;BME280;76596;51.056;-1.798;2024-03-23T07:56:02;100656.47;;;10.71;55.38
86020;BME280;76596;51.056;-1.798;2024-03-23T07:58:28;100673.81;;;10.52;56.02
86020;BME280;76596;51.056;-1.798;2024-03-23T08:00:54;100666.28;;;11.12;55.08
86020;BME280;76596;51.056;-1.798;2024-03-23T08:03:20;100671.41;;;10.35;55.95
86020;BME280;76596;51.056;-1.798;2024-03-23T08:05:46;100671.19;;;10.56;55.71
86020;BME280;76596;51.056;-1.798;2024-03-23T08:08:12;100666.38;;;11.04;53.68
86020;BME280;76596;51.056;-1.798;2024-03-23T08:10:52;100681.34;;;12.03;52.49
86020;BME280;76596;51.056;-1.798;2024-03-23T08:13:18;100671.91;;;12.02;51.61
86020;BME280;76596;51.056;-1.798;2024-03-23T08:15:44;100672.53;;;12.16;51.27
86020;BME280;76596;51.056;-1.798;2024-03-23T08:18:11;100679.63;;;12.00;51.02
86020;BME280;76596;51.056;-1.798;2024-03-23T08:20:37;100663.69;;;12.31;51.35
86020;BME280;76596;51.056;-1.798;2024-03-23T08:23:02;100668.25;;;13.88;47.26
86020;BME280;76596;51.056;-1.798;2024-03-23T08:25:30;100668.06;;;13.17;47.97
86020;BME280;76596;51.056;-1.798;2024-03-23T08:27:56;100665.72;;;13.48;47.07
86020;BME280;76596;51.056;-1.798;2024-03-23T08:30:22;100653.97;;;14.08;46.29
86020;BME280;76596;51.056;-1.798;2024-03-23T08:32:47;100658.81;;;13.07;47.83
86020;BME280;76596;51.056;-1.798;2024-03-23T08:35:13;100647.13;;;14.07;46.08
86020;BME280;76596;51.056;-1.798;2024-03-23T08:37:38;100650.69;;;14.69;46.01
86020;BME280;76596;51.056;-1.798;2024-03-23T08:40:04;100643.56;;;15.37;43.45
86020;BME280;76596;51.056;-1.798;2024-03-23T08:42:30;100654.78;;;16.20;41.90
86020;BME280;76596;51.056;-1.798;2024-03-23T08:44:55;100643.66;;;15.05;42.85
86020;BME280;76596;51.056;-1.798;2024-03-23T08:47:20;100636.84;;;15.01;43.00
86020;BME280;76596;51.056;-1.798;2024-03-23T08:49:46;100645.25;;;13.77;45.95
86020;BME280;76596;51.056;-1.798;2024-03-23T08:52:11;100636.19;;;14.64;44.80
86020;BME280;76596;51.056;-1.798;2024-03-23T08:54:36;100638.91;;;15.49;42.74
86020;BME280;76596;51.056;-1.798;2024-03-23T08:57:02;100637.94;;;16.06;41.34
86020;BME280;76596;51.056;-1.798;2024-03-23T08:59:27;100631.78;;;16.35;41.14
86020;BME280;76596;51.056;-1.798;2024-03-23T09:01:53;100638.91;;;14.90;44.24
86020;BME280;76596;51.056;-1.798;2024-03-23T09:04:19;100626.97;;;15.44;43.66
86020;BME280;76596;51.056;-1.798;2024-03-23T09:06:44;100636.56;;;15.96;41.84
86020;BME280;76596;51.056;-1.798;2024-03-23T09:09:09;100627.31;;;16.64;40.44
86020;BME280;76596;51.056;-1.798;2024-03-23T09:11:35;100631.25;;;14.87;44.11
86020;BME280;76596;51.056;-1.798;2024-03-23T09:14:00;100625.25;;;14.85;44.08
86020;BME280;76596;51.056;-1.798;2024-03-23T09:16:26;100623.72;;;13.00;46.43
86020;BME280;76596;51.056;-1.798;2024-03-23T09:18:51;100619.38;;;13.79;46.22
86020;BME280;76596;51.056;-1.798;2024-03-23T09:21:17;100631.41;;;14.81;44.73
86020;BME280;76596;51.056;-1.798;2024-03-23T09:23:46;100626.13;;;14.54;45.16
86020;BME280;76596;51.056;-1.798;2024-03-23T09:26:12;100633.88;;;13.49;46.14
86020;BME280;76596;51.056;-1.798;2024-03-23T09:28:37;100631.16;;;12.71;47.81
86020;BME280;76596;51.056;-1.798;2024-03-23T09:31:06;100630.16;;;13.61;46.97
86020;BME280;76596;51.056;-1.798;2024-03-23T09:33:39;100630.69;;;12.53;49.21
86020;BME280;76596;51.056;-1.798;2024-03-23T09:36:05;100625.81;;;11.26;53.80
86020;BME280;76596;51.056;-1.798;2024-03-23T09:38:31;100623.34;;;10.46;54.61
86020;BME280;76596;51.056;-1.798;2024-03-23T09:40:57;100623.59;;;10.23;55.02
86020;BME280;76596;51.056;-1.798;2024-03-23T09:43:23;100630.75;;;11.42;53.42
86020;BME280;76596;51.056;-1.798;2024-03-23T09:45:49;100619.47;;;11.50;52.40
86020;BME280;76596;51.056;-1.798;2024-03-23T09:48:15;100610.28;;;13.64;47.56
86020;BME280;76596;51.056;-1.798;2024-03-23T09:50:43;100613.06;;;14.59;45.74
86020;BME280;76596;51.056;-1.798;2024-03-23T09:53:10;100603.84;;;13.82;46.53
86020;BME280;76596;51.056;-1.798;2024-03-23T09:55:37;100600.16;;;13.92;47.02
86020;BME280;76596;51.056;-1.798;2024-03-23T09:58:03;100595.19;;;13.83;46.32
86020;BME280;76596;51.056;-1.798;2024-03-23T10:00:30;100594.28;;;14.52;45.22
86020;BME280;76596;51.056;-1.798;2024-03-23T10:02:56;100579.31;;;16.52;42.04
86020;BME280;76596;51.056;-1.798;2024-03-23T10:05:26;100576.28;;;17.11;38.96
86020;BME280;76596;51.056;-1.798;2024-03-23T10:07:52;100581.84;;;17.24;39.21
86020;BME280;76596;51.056;-1.798;2024-03-23T10:10:18;100578.22;;;16.83;40.24
86020;BME280;76596;51.056;-1.798;2024-03-23T10:12:45;100591.56;;;16.24;39.33
86020;BME280;76596;51.056;-1.798;2024-03-23T10:15:21;100585.97;;;14.40;42.77
86020;BME280;76596;51.056;-1.798;2024-03-23T10:17:47;100583.91;;;15.41;42.42
86020;BME280;76596;51.056;-1.798;2024-03-23T10:20:13;100572.53;;;15.19;40.71
86020;BME280;76596;51.056;-1.798;2024-03-23T10:22:39;100567.78;;;15.33;40.56
86020;BME280;76596;51.056;-1.798;2024-03-23T10:25:08;100557.59;;;15.55;40.15
86020;BME280;76596;51.056;-1.798;2024-03-23T10:27:34;100569.75;;;15.25;40.20
86020;BME280;76596;51.056;-1.798;2024-03-23T10:30:09;100565.91;;;15.38;40.86
86020;BME280;76596;51.056;-1.798;2024-03-23T10:32:35;100554.78;;;14.47;43.77
86020;BME280;76596;51.056;-1.798;2024-03-23T10:35:19;100547.28;;;14.38;44.65
86020;BME280;76596;51.056;-1.798;2024-03-23T10:37:45;100556.34;;;13.54;46.85
86020;BME280;76596;51.056;-1.798;2024-03-23T10:40:17;100546.06;;;12.31;49.72
86020;BME280;76596;51.056;-1.798;2024-03-23T10:42:43;100538.59;;;11.66;51.29
86020;BME280;76596;51.056;-1.798;2024-03-23T10:45:10;100529.19;;;10.47;54.24
86020;BME280;76596;51.056;-1.798;2024-03-23T10:47:37;100541.03;;;9.72;56.81
86020;BME280;76596;51.056;-1.798;2024-03-23T10:50:03;100552.28;;;9.53;61.97
86020;BME280;76596;51.056;-1.798;2024-03-23T10:52:30;100566.47;;;8.63;67.06
86020;BME280;76596;51.056;-1.798;2024-03-23T10:54:56;100570.88;;;7.85;69.88
86020;BME280;76596;51.056;-1.798;2024-03-23T10:57:31;100571.75;;;7.84;71.00
86020;BME280;76596;51.056;-1.798;2024-03-23T10:59:59;100565.78;;;7.54;72.63
86020;BME280;76596;51.056;-1.798;2024-03-23T11:02:27;100564.06;;;7.38;72.54
86020;BME280;76596;51.056;-1.798;2024-03-23T11:04:53;100541.91;;;7.63;71.88
86020;BME280;76596;51.056;-1.798;2024-03-23T11:07:28;100528.00;;;8.82;69.61
86020;BME280;76596;51.056;-1.798;2024-03-23T11:09:54;100524.47;;;9.04;68.88
86020;BME280;76596;51.056;-1.798;2024-03-23T11:14:45;100503.44;;;11.67;62.75
86020;BME280;76596;51.056;-1.798;2024-03-23T11:17:11;100498.72;;;11.43;62.31
86020;BME280;76596;51.056;-1.798;2024-03-23T11:19:37;100500.25;;;12.47;57.78
86020;BME280;76596;51.056;-1.798;2024-03-23T11:22:03;100489.16;;;13.22;56.05
86020;BME280;76596;51.056;-1.798;2024-03-23T11:24:30;100497.84;;;11.42;59.47
86020;BME280;76596;51.056;-1.798;2024-03-23T11:26:55;100514.72;;;10.40;62.54
86020;BME280;76596;51.056;-1.798;2024-03-23T11:29:21;100529.16;;;9.62;64.75
86020;BME280;76596;51.056;-1.798;2024-03-23T11:31:47;100528.34;;;9.57;65.65
86020;BME280;76596;51.056;-1.798;2024-03-23T11:34:17;100511.59;;;9.10;67.06
86020;BME280;76596;51.056;-1.798;2024-03-23T11:36:43;100503.00;;;9.20;66.11
86020;BME280;76596;51.056;-1.798;2024-03-23T11:39:17;100496.38;;;9.92;66.02
86020;BME280;76596;51.056;-1.798;2024-03-23T11:41:49;100490.31;;;10.00;64.27
86020;BME280;76596;51.056;-1.798;2024-03-23T11:44:35;100497.63;;;11.57;61.82
86020;BME280;76596;51.056;-1.798;2024-03-23T11:47:10;100483.63;;;14.34;55.04
86020;BME280;76596;51.056;-1.798;2024-03-23T11:49:36;100478.91;;;16.34;50.83
86020;BME280;76596;51.056;-1.798;2024-03-23T11:52:06;100471.59;;;14.64;50.49
86020;BME280;76596;51.056;-1.798;2024-03-23T11:54:31;100475.06;;;12.98;52.63
86020;BME280;76596;51.056;-1.798;2024-03-23T11:57:00;100492.13;;;11.25;55.89
86020;BME280;76596;51.056;-1.798;2024-03-23T12:02:05;100484.50;;;10.60;58.10
86020;BME280;76596;51.056;-1.798;2024-03-23T12:04:31;100484.31;;;10.74;59.34
86020;BME280;76596;51.056;-1.798;2024-03-23T12:07:17;100478.47;;;11.21;57.39
86020;BME280;76596;51.056;-1.798;2024-03-23T12:10:05;100479.47;;;11.12;56.88
86020;BME280;76596;51.056;-1.798;2024-03-23T12:12:33;100465.94;;;10.40;59.79
86020;BME280;76596;51.056;-1.798;2024-03-23T12:15:03;100466.78;;;9.59;63.59
86020;BME280;76596;51.056;-1.798;2024-03-23T12:17:30;100473.16;;;9.12;66.04
86020;BME280;76596;51.056;-1.798;2024-03-23T12:19:55;100467.38;;;8.84;67.99
86020;BME280;76596;51.056;-1.798;2024-03-23T12:22:21;100488.06;;;8.44;69.35
86020;BME280;76596;51.056;-1.798;2024-03-23T12:24:47;100484.81;;;7.91;69.36
86020;BME280;76596;51.056;-1.798;2024-03-23T12:27:12;100472.91;;;7.51;71.13
86020;BME280;76596;51.056;-1.798;2024-03-23T12:29:38;100477.19;;;7.41;71.24
86020;BME280;76596;51.056;-1.798;2024-03-23T12:32:05;100478.88;;;7.31;71.23
86020;BME280;76596;51.056;-1.798;2024-03-23T12:34:30;100472.91;;;7.29;72.26
86020;BME280;76596;51.056;-1.798;2024-03-23T12:36:56;100467.81;;;7.22;72.82
86020;BME280;76596;51.056;-1.798;2024-03-23T12:39:22;100466.09;;;7.24;71.56
86020;BME280;76596;51.056;-1.798;2024-03-23T12:41:50;100455.88;;;7.39;70.44
86020;BME280;76596;51.056;-1.798;2024-03-23T12:44:17;100449.88;;;7.66;71.23
86020;BME280;76596;51.056;-1.798;2024-03-23T12:46:44;100448.09;;;8.09;70.05
86020;BME280;76596;51.056;-1.798;2024-03-23T12:49:10;100434.91;;;8.89;70.25
86020;BME280;76596;51.056;-1.798;2024-03-23T12:51:35;100430.16;;;9.44;67.56
86020;BME280;76596;51.056;-1.798;2024-03-23T12:54:01;100423.72;;;9.90;66.76
86020;BME280;76596;51.056;-1.798;2024-03-23T12:56:26;100423.56;;;10.02;66.92
86020;BME280;76596;51.056;-1.798;2024-03-23T12:58:54;100417.31;;;10.26;64.02
86020;BME280;76596;51.056;-1.798;2024-03-23T13:01:20;100406.84;;;10.41;64.45
86020;BME280;76596;51.056;-1.798;2024-03-23T13:03:47;100399.22;;;10.37;64.59
86020;BME280;76596;51.056;-1.798;2024-03-23T13:06:12;100398.94;;;10.55;67.61
86020;BME280;76596;51.056;-1.798;2024-03-23T13:08:38;100394.06;;;10.37;63.63
86020;BME280;76596;51.056;-1.798;2024-03-23T13:11:04;100395.78;;;9.65;65.46
86020;BME280;76596;51.056;-1.798;2024-03-23T13:13:29;100395.38;;;9.20;65.54
86020;BME280;76596;51.056;-1.798;2024-03-23T13:15:57;100400.47;;;9.22;65.12
86020;BME280;76596;51.056;-1.798;2024-03-23T13:18:22;100389.84;;;9.60;66.96
86020;BME280;76596;51.056;-1.798;2024-03-23T13:20:47;100376.16;;;9.61;64.59
86020;BME280;76596;51.056;-1.798;2024-03-23T13:23:12;100378.34;;;9.95;64.48
86020;BME280;76596;51.056;-1.798;2024-03-23T13:25:38;100378.31;;;9.96;64.70
86020;BME280;76596;51.056;-1.798;2024-03-23T13:28:03;100372.16;;;10.08;64.29
86020;BME280;76596;51.056;-1.798;2024-03-23T13:30:29;100380.72;;;10.10;62.88
86020;BME280;76596;51.056;-1.798;2024-03-23T13:32:54;100372.38;;;9.91;60.51
86020;BME280;76596;51.056;-1.798;2024-03-23T13:35:21;100371.16;;;9.49;60.42
86020;BME280;76596;51.056;-1.798;2024-03-23T13:37:46;100386.72;;;9.32;60.77
86020;BME280;76596;51.056;-1.798;2024-03-23T13:40:12;100387.75;;;9.11;59.23
86020;BME280;76596;51.056;-1.798;2024-03-23T13:42:37;100391.09;;;9.21;60.09
86020;BME280;76596;51.056;-1.798;2024-03-23T13:45:03;100386.94;;;9.09;60.79
86020;BME280;76596;51.056;-1.798;2024-03-23T13:47:29;100390.44;;;8.96;60.04